createdAt,value
2023-08-28T00:05:05.485Z,18.23
2023-08-28T00:10:15.814Z,18.25
2023-08-28T00:15:26.085Z,18.27
2023-08-28T00:20:36.112Z,18.33
2023-08-28T00:25:46.561Z,18.36
2023-08-28T00:30:56.491Z,18.31
2023-08-28T00:36:07.171Z,18.25
2023-08-28T00:41:17.065Z,18.18
2023-08-28T00:46:27.200Z,18.11
2023-08-28T00:51:37.475Z,18.07
2023-08-28T00:56:48.265Z,18.04
2023-08-28T01:01:58.142Z,18.02
2023-08-28T01:07:21.515Z,18.05
2023-08-28T01:12:44.239Z,18.10
2023-08-28T01:17:59.832Z,18.10
2023-08-28T01:23:21.030Z,18.09
2023-08-28T01:28:32.203Z,18.07
2023-08-28T01:33:42.570Z,18.08
2023-08-28T01:39:00.375Z,18.10
2023-08-28T01:44:12.912Z,18.11
2023-08-28T01:49:22.731Z,18.12
2023-08-28T01:54:32.638Z,18.11
2023-08-28T01:59:42.244Z,18.17
2023-08-28T02:04:52.008Z,18.18
2023-08-28T02:10:02.001Z,18.16
2023-08-28T02:15:13.990Z,18.14
2023-08-28T02:20:24.003Z,18.15
2023-08-28T02:25:33.972Z,18.17
2023-08-28T02:30:43.887Z,18.18
2023-08-28T02:35:53.823Z,18.16
2023-08-28T02:41:10.616Z,18.14
2023-08-28T02:46:20.908Z,18.14
2023-08-28T02:51:30.948Z,18.18
2023-08-28T02:56:43.483Z,18.20
2023-08-28T03:01:53.138Z,18.19
2023-08-28T03:07:03.525Z,18.19
2023-08-28T03:12:14.403Z,18.19
2023-08-28T03:17:24.903Z,18.18
2023-08-28T03:22:34.904Z,18.21
2023-08-28T03:27:44.866Z,18.24
2023-08-28T03:32:54.936Z,18.25
2023-08-28T03:38:05.418Z,18.22
2023-08-28T03:43:15.837Z,18.21
2023-08-28T03:48:25.679Z,18.18
2023-08-28T03:53:35.589Z,18.17
2023-08-28T03:58:45.582Z,18.14
2023-08-28T04:03:55.335Z,18.13
2023-08-28T04:09:05.985Z,18.14
2023-08-28T04:14:15.899Z,18.17
2023-08-28T04:19:26.141Z,18.19
2023-08-28T04:24:36.112Z,18.23
2023-08-28T04:29:46.145Z,18.29
2023-08-28T04:34:55.793Z,18.36
2023-08-28T04:40:05.763Z,18.37
2023-08-28T04:45:15.959Z,18.33
2023-08-28T04:50:26.058Z,18.28
2023-08-28T04:55:35.836Z,18.27
2023-08-28T05:00:45.514Z,18.28
2023-08-28T05:05:55.785Z,18.33
2023-08-28T05:11:06.223Z,18.37
2023-08-28T05:16:16.472Z,18.39
2023-08-28T05:21:26.383Z,18.42
2023-08-28T05:26:36.355Z,18.45
2023-08-28T05:31:46.895Z,18.46
2023-08-28T05:36:56.660Z,18.52
2023-08-28T05:42:06.864Z,18.55
2023-08-28T05:47:16.490Z,18.59
2023-08-28T05:52:26.081Z,18.67
2023-08-28T05:57:36.277Z,18.71
2023-08-28T06:02:46.572Z,18.83
2023-08-28T06:07:56.440Z,18.91
2023-08-28T06:13:06.760Z,18.92
2023-08-28T06:18:17.034Z,18.88
2023-08-28T06:23:26.911Z,18.93
2023-08-28T06:28:36.649Z,19.01
2023-08-28T06:33:46.677Z,19.08
2023-08-28T06:38:56.257Z,19.23
2023-08-28T06:44:06.542Z,19.48
2023-08-28T06:49:16.253Z,19.77
2023-08-28T06:54:29.626Z,19.94
2023-08-28T06:59:43.480Z,19.94
2023-08-28T07:04:53.504Z,20.15
2023-08-28T07:10:05.737Z,20.47
2023-08-28T07:15:58.278Z,20.71
2023-08-28T07:21:09.491Z,20.91
2023-08-28T07:26:19.438Z,20.78
2023-08-28T07:31:29.505Z,20.40
2023-08-28T07:36:39.902Z,20.03
2023-08-28T07:41:49.565Z,20.10
2023-08-28T07:46:59.396Z,20.25
2023-08-28T07:52:09.910Z,20.24
2023-08-28T07:57:24.795Z,20.62
2023-08-28T08:02:34.764Z,20.89
2023-08-28T08:07:45.639Z,20.56
2023-08-28T08:12:55.384Z,20.48
2023-08-28T08:18:05.631Z,20.53
2023-08-28T08:23:15.438Z,20.76
2023-08-28T08:28:25.400Z,21.04
2023-08-28T08:33:35.146Z,21.38
2023-08-28T08:38:45.228Z,21.27
2023-08-28T08:43:55.039Z,21.28
2023-08-28T08:49:08.286Z,20.96
2023-08-28T08:54:25.965Z,20.87
2023-08-28T08:59:37.354Z,20.86
2023-08-28T09:04:51.404Z,20.99
2023-08-28T09:10:04.574Z,21.25
2023-08-28T09:15:16.254Z,21.50
2023-08-28T09:20:27.229Z,21.49
2023-08-28T09:25:37.484Z,21.74
2023-08-28T09:30:48.431Z,21.81
2023-08-28T09:36:02.895Z,21.89
2023-08-28T09:41:13.462Z,21.95
2023-08-28T09:46:25.276Z,22.17
2023-08-28T09:51:46.276Z,22.26
2023-08-28T09:56:56.080Z,22.33
2023-08-28T10:02:19.985Z,22.45
2023-08-28T10:07:33.709Z,22.32
2023-08-28T10:12:45.834Z,22.44
2023-08-28T10:17:58.351Z,22.58
2023-08-28T10:23:09.045Z,22.57
2023-08-28T10:28:20.022Z,22.59
2023-08-28T10:33:32.206Z,22.55
2023-08-28T10:38:55.135Z,22.65
2023-08-28T10:44:10.412Z,22.85
2023-08-28T10:49:22.759Z,22.89
2023-08-28T10:54:41.386Z,22.93
2023-08-28T10:59:51.737Z,22.94
2023-08-28T11:05:19.925Z,22.98
2023-08-28T11:10:30.514Z,23.18
2023-08-28T11:15:45.094Z,23.35
2023-08-28T11:20:58.698Z,23.38
2023-08-28T11:26:28.760Z,23.35
2023-08-28T11:31:38.679Z,23.41
2023-08-28T11:36:48.636Z,23.44
2023-08-28T11:41:58.643Z,23.55
2023-08-28T11:47:08.890Z,23.43
2023-08-28T11:52:23.205Z,23.45
2023-08-28T11:57:34.072Z,23.71
2023-08-28T12:02:48.565Z,23.65
2023-08-28T12:07:58.478Z,23.55
2023-08-28T12:13:09.636Z,23.54
2023-08-28T12:18:19.775Z,23.45
2023-08-28T12:23:29.573Z,23.33
2023-08-28T12:28:39.555Z,23.33
2023-08-28T12:33:49.835Z,23.28
2023-08-28T12:39:01.441Z,23.06
2023-08-28T12:44:13.915Z,23.21
2023-08-28T12:49:25.350Z,23.13
2023-08-28T12:54:35.848Z,23.07
2023-08-28T12:59:45.770Z,23.18
2023-08-28T13:04:55.769Z,23.09
2023-08-28T13:10:07.155Z,22.95
2023-08-28T13:15:18.051Z,22.82
2023-08-28T13:20:29.175Z,22.66
2023-08-28T13:25:39.230Z,22.67
2023-08-28T13:30:49.483Z,22.64
2023-08-28T13:35:59.475Z,22.70
2023-08-28T13:41:09.481Z,22.83
2023-08-28T13:46:19.292Z,22.91
2023-08-28T13:51:29.162Z,22.85
2023-08-28T13:56:39.192Z,22.76
2023-08-28T14:01:49.248Z,22.74
2023-08-28T14:06:59.696Z,22.68
2023-08-28T14:12:11.171Z,22.69
2023-08-28T14:17:21.207Z,22.70
2023-08-28T14:22:31.843Z,22.68
2023-08-28T14:27:53.656Z,22.60
2023-08-28T14:33:07.726Z,22.57
2023-08-28T14:38:19.325Z,22.62
2023-08-28T14:43:29.284Z,22.64
2023-08-28T14:48:39.640Z,22.66
2023-08-28T14:53:53.294Z,22.72
2023-08-28T14:59:04.665Z,22.71
2023-08-28T15:04:14.924Z,22.78
2023-08-28T15:09:25.673Z,22.78
2023-08-28T15:14:36.156Z,22.68
2023-08-28T15:19:46.843Z,22.62
2023-08-28T15:24:57.706Z,22.53
2023-08-28T15:30:09.134Z,22.47
2023-08-28T15:35:21.024Z,22.33
2023-08-28T15:40:31.581Z,22.12
2023-08-28T15:45:54.032Z,21.98
2023-08-28T15:51:05.023Z,21.89
2023-08-28T15:56:15.385Z,21.82
2023-08-28T16:01:25.402Z,21.73
2023-08-28T16:06:35.643Z,21.69
2023-08-28T16:11:53.857Z,21.61
2023-08-28T16:17:04.641Z,21.48
2023-08-28T16:22:15.441Z,21.32
2023-08-28T16:27:25.467Z,21.22
2023-08-28T16:32:36.039Z,21.14
2023-08-28T16:37:47.130Z,21.07
2023-08-28T16:42:57.158Z,20.99
2023-08-28T16:48:08.557Z,20.90
2023-08-28T16:53:19.031Z,20.83
2023-08-28T16:58:29.588Z,20.78
2023-08-28T17:03:39.932Z,20.72
2023-08-28T17:08:50.060Z,20.60
2023-08-28T17:13:59.914Z,20.52
2023-08-28T17:19:10.148Z,20.46
2023-08-28T17:24:20.333Z,20.40
2023-08-28T17:29:30.444Z,20.33
2023-08-28T17:34:40.458Z,20.30
2023-08-28T17:39:50.476Z,20.24
2023-08-28T17:45:00.849Z,20.16
2023-08-28T17:50:13.025Z,20.12
2023-08-28T17:55:23.503Z,20.07
2023-08-28T18:00:34.028Z,20.03
2023-08-28T18:05:44.427Z,20.02
2023-08-28T18:10:54.689Z,20.00
2023-08-28T18:16:15.865Z,19.96
2023-08-28T18:21:26.045Z,19.93
2023-08-28T18:26:36.232Z,19.91
2023-08-28T18:31:47.598Z,19.89
2023-08-28T18:36:57.807Z,19.86
2023-08-28T18:42:09.956Z,19.81
2023-08-28T18:47:20.187Z,19.77
2023-08-28T18:52:30.373Z,19.72
2023-08-28T18:57:41.732Z,19.71
2023-08-28T19:02:52.030Z,19.68
2023-08-28T19:08:02.898Z,19.61
2023-08-28T19:13:13.454Z,19.61
2023-08-28T19:18:24.671Z,19.59
2023-08-28T19:23:36.078Z,19.57
2023-08-28T19:28:46.334Z,19.55
2023-08-28T19:33:56.311Z,19.57
2023-08-28T19:39:08.449Z,19.57
2023-08-28T19:44:18.882Z,19.59
2023-08-28T19:49:28.882Z,19.60
2023-08-28T19:54:40.062Z,19.58
2023-08-28T19:59:50.614Z,19.53
2023-08-28T20:05:00.915Z,19.47
2023-08-28T20:10:12.398Z,19.46
2023-08-28T20:15:23.654Z,19.45
2023-08-28T20:20:33.686Z,19.45
2023-08-28T20:25:44.609Z,19.45
2023-08-28T20:30:54.859Z,19.44
2023-08-28T20:36:04.722Z,19.40
2023-08-28T20:41:14.737Z,19.41
2023-08-28T20:46:26.234Z,19.40
2023-08-28T20:51:37.582Z,19.34
2023-08-28T20:56:47.451Z,19.26
2023-08-28T21:01:57.251Z,19.19
2023-08-28T21:07:07.082Z,19.15
2023-08-28T21:12:16.826Z,19.09
2023-08-28T21:17:26.777Z,19.08
2023-08-28T21:22:36.559Z,19.07
2023-08-28T21:27:46.354Z,19.03
2023-08-28T21:32:56.498Z,18.96
2023-08-28T21:38:06.839Z,18.94
2023-08-28T21:43:17.025Z,18.87
2023-08-28T21:48:27.258Z,18.84
2023-08-28T21:53:37.220Z,18.86
2023-08-28T21:58:47.069Z,18.86
2023-08-28T22:03:57.655Z,18.80
2023-08-28T22:09:08.074Z,18.76
2023-08-28T22:14:17.978Z,18.76
2023-08-28T22:19:27.825Z,18.71
2023-08-28T22:24:38.780Z,18.65
2023-08-28T22:29:48.620Z,18.60
2023-08-28T22:34:58.542Z,18.55
2023-08-28T22:40:11.024Z,18.50
2023-08-28T22:45:22.072Z,18.52
2023-08-28T22:50:31.974Z,18.53
2023-08-28T22:55:42.213Z,18.49
2023-08-28T23:00:55.657Z,18.46
2023-08-28T23:06:06.898Z,18.46
2023-08-28T23:11:17.322Z,18.43
2023-08-28T23:16:27.568Z,18.43
2023-08-28T23:21:38.245Z,18.34
2023-08-28T23:26:48.215Z,18.25
2023-08-28T23:31:58.110Z,18.13
2023-08-28T23:37:10.671Z,18.10
2023-08-28T23:42:20.989Z,18.07
2023-08-28T23:47:31.064Z,17.95
2023-08-28T23:52:41.831Z,17.83
2023-08-28T23:57:52.424Z,17.78
